sensor_id;sensor_type;location;lat;lon;timestamp;temperature;humidity
33943;DHT22;66763;47.856;17.462;2023-03-31T00:02:17;21.40;45.80
33943;DHT22;66763;47.856;17.462;2023-03-31T00:04:46;21.40;45.90
33943;DHT22;66763;47.856;17.462;2023-03-31T00:07:17;21.40;45.90
33943;DHT22;66763;47.856;17.462;2023-03-31T00:09:49;21.40;45.90
33943;DHT22;66763;47.856;17.462;2023-03-31T00:12:19;21.40;45.90
33943;DHT22;66763;47.856;17.462;2023-03-31T00:14:44;21.40;45.80
33943;DHT22;66763;47.856;17.462;2023-03-31T00:17:10;21.40;46.00
33943;DHT22;66763;47.856;17.462;2023-03-31T00:19:36;21.30;45.90
33943;DHT22;66763;47.856;17.462;2023-03-31T00:22:02;21.30;45.90
33943;DHT22;66763;47.856;17.462;2023-03-31T00:24:29;21.30;45.90
33943;DHT22;66763;47.856;17.462;2023-03-31T00:27:03;21.20;45.80
33943;DHT22;66763;47.856;17.462;2023-03-31T00:29:29;21.20;45.90
33943;DHT22;66763;47.856;17.462;2023-03-31T00:31:55;21.30;45.90
33943;DHT22;66763;47.856;17.462;2023-03-31T00:34:24;21.20;45.80
33943;DHT22;66763;47.856;17.462;2023-03-31T00:36:49;21.20;45.80
33943;DHT22;66763;47.856;17.462;2023-03-31T00:39:17;21.20;45.90
33943;DHT22;66763;47.856;17.462;2023-03-31T00:41:43;21.20;45.90
33943;DHT22;66763;47.856;17.462;2023-03-31T00:44:19;21.20;45.90
33943;DHT22;66763;47.856;17.462;2023-03-31T00:49:18;21.20;45.70
33943;DHT22;66763;47.856;17.462;2023-03-31T00:51:45;21.10;45.70
33943;DHT22;66763;47.856;17.462;2023-03-31T00:54:12;21.10;45.70
33943;DHT22;66763;47.856;17.462;2023-03-31T00:56:40;21.10;45.70
33943;DHT22;66763;47.856;17.462;2023-03-31T00:59:08;21.10;45.60
33943;DHT22;66763;47.856;17.462;2023-03-31T01:01:35;21.10;45.70
33943;DHT22;66763;47.856;17.462;2023-03-31T01:04:04;21.10;45.70
33943;DHT22;66763;47.856;17.462;2023-03-31T01:06:31;21.10;45.70
33943;DHT22;66763;47.856;17.462;2023-03-31T01:08:58;21.10;45.70
33943;DHT22;66763;47.856;17.462;2023-03-31T01:11:24;21.00;45.70
33943;DHT22;66763;47.856;17.462;2023-03-31T01:13:52;21.00;45.70
33943;DHT22;66763;47.856;17.462;2023-03-31T01:16:20;21.00;45.80
33943;DHT22;66763;47.856;17.462;2023-03-31T01:18:46;21.00;45.80
33943;DHT22;66763;47.856;17.462;2023-03-31T01:26:09;21.00;45.70
33943;DHT22;66763;47.856;17.462;2023-03-31T01:31:26;20.90;45.60
33943;DHT22;66763;47.856;17.462;2023-03-31T01:47:18;20.90;45.70
33943;DHT22;66763;47.856;17.462;2023-03-31T01:52:17;20.80;45.60
33943;DHT22;66763;47.856;17.462;2023-03-31T01:55:04;20.80;45.70
33943;DHT22;66763;47.856;17.462;2023-03-31T01:57:33;20.80;45.70
33943;DHT22;66763;47.856;17.462;2023-03-31T02:02:35;20.80;45.70
33943;DHT22;66763;47.856;17.462;2023-03-31T02:05:36;20.80;45.70
33943;DHT22;66763;47.856;17.462;2023-03-31T02:07:54;20.80;45.70
33943;DHT22;66763;47.856;17.462;2023-03-31T02:10:20;20.70;45.70
33943;DHT22;66763;47.856;17.462;2023-03-31T02:12:47;20.70;45.70
33943;DHT22;66763;47.856;17.462;2023-03-31T02:15:15;20.70;45.70
33943;DHT22;66763;47.856;17.462;2023-03-31T02:17:43;20.70;45.60
33943;DHT22;66763;47.856;17.462;2023-03-31T02:20:11;20.70;45.60
33943;DHT22;66763;47.856;17.462;2023-03-31T02:22:38;20.70;45.60
33943;DHT22;66763;47.856;17.462;2023-03-31T02:25:06;20.70;45.80
33943;DHT22;66763;47.856;17.462;2023-03-31T02:27:41;20.60;45.60
33943;DHT22;66763;47.856;17.462;2023-03-31T02:30:08;20.60;45.60
33943;DHT22;66763;47.856;17.462;2023-03-31T02:32:37;20.60;45.60
33943;DHT22;66763;47.856;17.462;2023-03-31T02:35:04;20.60;45.80
33943;DHT22;66763;47.856;17.462;2023-03-31T02:37:30;20.60;45.60
33943;DHT22;66763;47.856;17.462;2023-03-31T02:39:57;20.60;45.70
33943;DHT22;66763;47.856;17.462;2023-03-31T02:42:23;20.60;45.70
33943;DHT22;66763;47.856;17.462;2023-03-31T02:44:49;20.60;45.60
33943;DHT22;66763;47.856;17.462;2023-03-31T02:47:15;20.60;45.70
33943;DHT22;66763;47.856;17.462;2023-03-31T02:49:43;20.60;45.60
33943;DHT22;66763;47.856;17.462;2023-03-31T03:06:01;21.10;45.00
33943;DHT22;66763;47.856;17.462;2023-03-31T03:08:15;21.20;45.00
33943;DHT22;66763;47.856;17.462;2023-03-31T03:13:26;21.40;44.90
33943;DHT22;66763;47.856;17.462;2023-03-31T03:15:55;21.50;44.80
33943;DHT22;66763;47.856;17.462;2023-03-31T03:18:22;21.50;44.70
33943;DHT22;66763;47.856;17.462;2023-03-31T03:20:48;21.60;44.70
33943;DHT22;66763;47.856;17.462;2023-03-31T03:23:15;21.60;44.70
33943;DHT22;66763;47.856;17.462;2023-03-31T03:25:41;21.70;44.70
33943;DHT22;66763;47.856;17.462;2023-03-31T03:28:06;21.80;44.70
33943;DHT22;66763;47.856;17.462;2023-03-31T03:30:32;21.80;44.60
33943;DHT22;66763;47.856;17.462;2023-03-31T03:32:57;21.80;44.60
33943;DHT22;66763;47.856;17.462;2023-03-31T03:35:23;21.80;44.60
33943;DHT22;66763;47.856;17.462;2023-03-31T03:37:48;21.90;44.50
33943;DHT22;66763;47.856;17.462;2023-03-31T03:40:14;21.90;44.50
33943;DHT22;66763;47.856;17.462;2023-03-31T03:42:39;21.90;44.50
33943;DHT22;66763;47.856;17.462;2023-03-31T03:45:05;22.00;44.50
33943;DHT22;66763;47.856;17.462;2023-03-31T03:47:31;22.00;44.50
33943;DHT22;66763;47.856;17.462;2023-03-31T03:49:57;22.00;44.50
33943;DHT22;66763;47.856;17.462;2023-03-31T03:52:22;22.00;44.40
33943;DHT22;66763;47.856;17.462;2023-03-31T03:54:48;22.00;44.40
33943;DHT22;66763;47.856;17.462;2023-03-31T03:57:13;22.00;44.30
33943;DHT22;66763;47.856;17.462;2023-03-31T03:59:39;22.00;44.30
33943;DHT22;66763;47.856;17.462;2023-03-31T04:02:05;22.00;44.30
33943;DHT22;66763;47.856;17.462;2023-03-31T04:04:30;22.00;44.30
33943;DHT22;66763;47.856;17.462;2023-03-31T04:06:56;22.00;44.40
33943;DHT22;66763;47.856;17.462;2023-03-31T04:09:21;22.00;44.40
33943;DHT22;66763;47.856;17.462;2023-03-31T04:11:47;21.90;44.30
33943;DHT22;66763;47.856;17.462;2023-03-31T04:14:12;21.90;44.40
33943;DHT22;66763;47.856;17.462;2023-03-31T04:16:38;21.90;44.40
33943;DHT22;66763;47.856;17.462;2023-03-31T04:19:04;21.90;44.40
33943;DHT22;66763;47.856;17.462;2023-03-31T04:21:30;21.80;44.40
33943;DHT22;66763;47.856;17.462;2023-03-31T04:23:59;21.80;44.40
33943;DHT22;66763;47.856;17.462;2023-03-31T04:26:30;21.80;44.40
33943;DHT22;66763;47.856;17.462;2023-03-31T04:28:56;21.80;44.50
33943;DHT22;66763;47.856;17.462;2023-03-31T04:31:24;21.80;44.50
33943;DHT22;66763;47.856;17.462;2023-03-31T04:33:53;21.80;44.60
33943;DHT22;66763;47.856;17.462;2023-03-31T04:36:19;21.70;44.60
33943;DHT22;66763;47.856;17.462;2023-03-31T04:38:49;21.70;44.60
33943;DHT22;66763;47.856;17.462;2023-03-31T04:41:21;21.60;44.60
33943;DHT22;66763;47.856;17.462;2023-03-31T04:43:46;21.60;44.60
33943;DHT22;66763;47.856;17.462;2023-03-31T04:46:12;21.60;44.60
33943;DHT22;66763;47.856;17.462;2023-03-31T04:48:37;21.60;44.70
33943;DHT22;66763;47.856;17.462;2023-03-31T04:51:03;21.60;44.70
33943;DHT22;66763;47.856;17.462;2023-03-31T04:53:29;21.50;44.70
33943;DHT22;66763;47.856;17.462;2023-03-31T04:55:54;21.50;44.80
33943;DHT22;66763;47.856;17.462;2023-03-31T04:58:20;21.40;44.80
33943;DHT22;66763;47.856;17.462;2023-03-31T05:00:45;21.40;44.90
33943;DHT22;66763;47.856;17.462;2023-03-31T05:03:11;21.40;44.80
33943;DHT22;66763;47.856;17.462;2023-03-31T05:05:36;21.40;44.90
33943;DHT22;66763;47.856;17.462;2023-03-31T05:08:03;21.40;44.90
33943;DHT22;66763;47.856;17.462;2023-03-31T05:10:28;21.30;44.90
33943;DHT22;66763;47.856;17.462;2023-03-31T05:12:54;21.30;44.90
33943;DHT22;66763;47.856;17.462;2023-03-31T05:15:20;21.30;45.00
33943;DHT22;66763;47.856;17.462;2023-03-31T05:17:45;21.30;45.00
33943;DHT22;66763;47.856;17.462;2023-03-31T05:20:11;21.20;44.90
33943;DHT22;66763;47.856;17.462;2023-03-31T05:22:38;21.20;45.00
33943;DHT22;66763;47.856;17.462;2023-03-31T05:25:04;21.20;44.90
33943;DHT22;66763;47.856;17.462;2023-03-31T05:27:30;21.20;45.00
33943;DHT22;66763;47.856;17.462;2023-03-31T05:29:56;21.20;45.00
33943;DHT22;66763;47.856;17.462;2023-03-31T05:32:22;21.10;44.80
33943;DHT22;66763;47.856;17.462;2023-03-31T05:34:48;21.10;44.90
33943;DHT22;66763;47.856;17.462;2023-03-31T05:37:14;21.10;45.50
33943;DHT22;66763;47.856;17.462;2023-03-31T05:39:39;21.10;45.00
33943;DHT22;66763;47.856;17.462;2023-03-31T05:42:05;21.00;45.00
33943;DHT22;66763;47.856;17.462;2023-03-31T05:44:32;21.00;44.90
33943;DHT22;66763;47.856;17.462;2023-03-31T05:46:57;21.00;45.10
33943;DHT22;66763;47.856;17.462;2023-03-31T05:49:23;20.90;45.00
33943;DHT22;66763;47.856;17.462;2023-03-31T05:51:48;20.90;45.10
33943;DHT22;66763;47.856;17.462;2023-03-31T05:54:14;20.90;45.10
33943;DHT22;66763;47.856;17.462;2023-03-31T05:56:40;20.90;45.20
33943;DHT22;66763;47.856;17.462;2023-03-31T05:59:05;20.90;45.10
33943;DHT22;66763;47.856;17.462;2023-03-31T06:01:31;20.90;45.20
33943;DHT22;66763;47.856;17.462;2023-03-31T06:03:56;20.90;45.00
33943;DHT22;66763;47.856;17.462;2023-03-31T06:06:22;20.90;45.10
33943;DHT22;66763;47.856;17.462;2023-03-31T06:08:48;20.80;45.00
33943;DHT22;66763;47.856;17.462;2023-03-31T06:11:14;20.80;45.20
33943;DHT22;66763;47.856;17.462;2023-03-31T06:13:41;20.80;45.20
33943;DHT22;66763;47.856;17.462;2023-03-31T06:16:08;20.80;45.10
33943;DHT22;66763;47.856;17.462;2023-03-31T06:18:34;20.80;45.20
33943;DHT22;66763;47.856;17.462;2023-03-31T06:21:00;20.80;45.20
33943;DHT22;66763;47.856;17.462;2023-03-31T06:23:26;20.80;45.20
33943;DHT22;66763;47.856;17.462;2023-03-31T06:25:52;20.80;45.30
33943;DHT22;66763;47.856;17.462;2023-03-31T06:28:18;20.70;45.30
33943;DHT22;66763;47.856;17.462;2023-03-31T06:30:44;20.70;45.20
33943;DHT22;66763;47.856;17.462;2023-03-31T06:33:09;20.70;45.30
33943;DHT22;66763;47.856;17.462;2023-03-31T06:35:39;20.70;45.30
33943;DHT22;66763;47.856;17.462;2023-03-31T06:38:04;20.70;45.30
33943;DHT22;66763;47.856;17.462;2023-03-31T06:40:30;20.70;45.40
33943;DHT22;66763;47.856;17.462;2023-03-31T06:42:56;20.60;45.30
33943;DHT22;66763;47.856;17.462;2023-03-31T06:45:21;20.60;45.40
33943;DHT22;66763;47.856;17.462;2023-03-31T06:47:47;20.60;45.30
33943;DHT22;66763;47.856;17.462;2023-03-31T06:50:12;20.60;45.50
33943;DHT22;66763;47.856;17.462;2023-03-31T06:52:38;20.60;45.50
33943;DHT22;66763;47.856;17.462;2023-03-31T06:55:05;20.60;45.50
33943;DHT22;66763;47.856;17.462;2023-03-31T06:57:31;20.60;45.50
33943;DHT22;66763;47.856;17.462;2023-03-31T06:59:58;20.60;45.40
33943;DHT22;66763;47.856;17.462;2023-03-31T07:02:23;20.60;45.50
33943;DHT22;66763;47.856;17.462;2023-03-31T07:04:49;20.70;45.20
33943;DHT22;66763;47.856;17.462;2023-03-31T07:07:14;20.80;45.10
33943;DHT22;66763;47.856;17.462;2023-03-31T07:09:40;20.80;44.80
33943;DHT22;66763;47.856;17.462;2023-03-31T07:12:06;20.90;44.60
33943;DHT22;66763;47.856;17.462;2023-03-31T07:14:31;20.90;44.60
33943;DHT22;66763;47.856;17.462;2023-03-31T07:16:57;21.00;44.80
33943;DHT22;66763;47.856;17.462;2023-03-31T07:19:23;21.00;44.60
33943;DHT22;66763;47.856;17.462;2023-03-31T07:21:49;21.10;44.60
33943;DHT22;66763;47.856;17.462;2023-03-31T07:24:14;21.20;44.60
33943;DHT22;66763;47.856;17.462;2023-03-31T07:26:40;21.20;44.70
33943;DHT22;66763;47.856;17.462;2023-03-31T07:29:06;21.30;44.60
33943;DHT22;66763;47.856;17.462;2023-03-31T07:31:31;21.40;44.60
33943;DHT22;66763;47.856;17.462;2023-03-31T07:33:57;21.50;44.70
33943;DHT22;66763;47.856;17.462;2023-03-31T07:36:22;21.50;44.60
33943;DHT22;66763;47.856;17.462;2023-03-31T07:38:48;21.60;44.70
33943;DHT22;66763;47.856;17.462;2023-03-31T07:41:15;21.60;44.80
33943;DHT22;66763;47.856;17.462;2023-03-31T07:43:41;21.70;44.70
33943;DHT22;66763;47.856;17.462;2023-03-31T07:48:40;21.80;44.90
33943;DHT22;66763;47.856;17.462;2023-03-31T07:51:06;21.80;44.80
33943;DHT22;66763;47.856;17.462;2023-03-31T07:53:31;21.90;44.80
33943;DHT22;66763;47.856;17.462;2023-03-31T07:55:57;21.90;44.70
33943;DHT22;66763;47.856;17.462;2023-03-31T07:58:23;21.90;44.70
33943;DHT22;66763;47.856;17.462;2023-03-31T08:00:49;21.90;44.80
33943;DHT22;66763;47.856;17.462;2023-03-31T08:03:14;22.00;44.90
33943;DHT22;66763;47.856;17.462;2023-03-31T08:05:40;22.10;44.90
33943;DHT22;66763;47.856;17.462;2023-03-31T08:08:07;22.10;44.90
33943;DHT22;66763;47.856;17.462;2023-03-31T08:10:32;22.20;44.90
33943;DHT22;66763;47.856;17.462;2023-03-31T08:12:58;22.20;44.90
33943;DHT22;66763;47.856;17.462;2023-03-31T08:15:23;22.20;45.00
33943;DHT22;66763;47.856;17.462;2023-03-31T08:17:49;22.20;45.00
33943;DHT22;66763;47.856;17.462;2023-03-31T08:20:17;22.20;45.20
33943;DHT22;66763;47.856;17.462;2023-03-31T08:22:42;22.30;45.10
33943;DHT22;66763;47.856;17.462;2023-03-31T08:25:08;22.30;45.40
33943;DHT22;66763;47.856;17.462;2023-03-31T08:27:34;22.30;45.30
33943;DHT22;66763;47.856;17.462;2023-03-31T08:30:00;22.40;45.30
33943;DHT22;66763;47.856;17.462;2023-03-31T08:32:32;22.40;45.50
33943;DHT22;66763;47.856;17.462;2023-03-31T08:34:58;22.40;45.30
33943;DHT22;66763;47.856;17.462;2023-03-31T08:37:24;22.40;45.20
33943;DHT22;66763;47.856;17.462;2023-03-31T08:39:50;22.40;45.10
33943;DHT22;66763;47.856;17.462;2023-03-31T08:42:19;22.40;45.00
33943;DHT22;66763;47.856;17.462;2023-03-31T08:44:56;22.30;44.90
33943;DHT22;66763;47.856;17.462;2023-03-31T08:47:23;22.30;44.80
33943;DHT22;66763;47.856;17.462;2023-03-31T08:49:52;22.20;44.40
33943;DHT22;66763;47.856;17.462;2023-03-31T08:52:22;22.20;44.80
33943;DHT22;66763;47.856;17.462;2023-03-31T08:54:53;22.30;44.60
33943;DHT22;66763;47.856;17.462;2023-03-31T08:59:59;22.30;44.50
33943;DHT22;66763;47.856;17.462;2023-03-31T09:05:17;22.20;44.40
33943;DHT22;66763;47.856;17.462;2023-03-31T09:07:49;22.30;44.50
33943;DHT22;66763;47.856;17.462;2023-03-31T09:10:27;22.20;44.40
33943;DHT22;66763;47.856;17.462;2023-03-31T09:15:31;22.20;44.50
33943;DHT22;66763;47.856;17.462;2023-03-31T09:18:25;22.20;44.50
33943;DHT22;66763;47.856;17.462;2023-03-31T09:21:01;22.20;44.60
33943;DHT22;66763;47.856;17.462;2023-03-31T09:23:32;22.20;44.60
33943;DHT22;66763;47.856;17.462;2023-03-31T09:25:59;22.20;45.10
33943;DHT22;66763;47.856;17.462;2023-03-31T09:28:43;22.20;46.10
33943;DHT22;66763;47.856;17.462;2023-03-31T09:31:13;22.20;47.20
33943;DHT22;66763;47.856;17.462;2023-03-31T09:33:45;22.20;47.60
33943;DHT22;66763;47.856;17.462;2023-03-31T09:36:16;22.20;47.30
33943;DHT22;66763;47.856;17.462;2023-03-31T09:38:42;22.20;48.90
33943;DHT22;66763;47.856;17.462;2023-03-31T09:41:08;22.20;48.60
33943;DHT22;66763;47.856;17.462;2023-03-31T09:43:35;22.30;49.20
33943;DHT22;66763;47.856;17.462;2023-03-31T09:46:03;22.20;49.30
33943;DHT22;66763;47.856;17.462;2023-03-31T09:48:31;22.30;49.90
33943;DHT22;66763;47.856;17.462;2023-03-31T09:53:30;22.40;51.60
33943;DHT22;66763;47.856;17.462;2023-03-31T09:55:59;22.40;51.80
33943;DHT22;66763;47.856;17.462;2023-03-31T09:58:25;22.40;53.10
33943;DHT22;66763;47.856;17.462;2023-03-31T10:01:11;22.40;53.20
33943;DHT22;66763;47.856;17.462;2023-03-31T10:03:51;22.40;53.50
33943;DHT22;66763;47.856;17.462;2023-03-31T10:06:18;22.40;53.20
33943;DHT22;66763;47.856;17.462;2023-03-31T10:11:12;22.30;51.50
33943;DHT22;66763;47.856;17.462;2023-03-31T10:13:58;22.30;50.50
33943;DHT22;66763;47.856;17.462;2023-03-31T10:16:31;22.20;50.40
33943;DHT22;66763;47.856;17.462;2023-03-31T10:19:22;22.20;48.90
33943;DHT22;66763;47.856;17.462;2023-03-31T10:21:55;22.20;50.10
33943;DHT22;66763;47.856;17.462;2023-03-31T10:24:21;22.20;50.30
33943;DHT22;66763;47.856;17.462;2023-03-31T10:26:49;22.20;50.40
33943;DHT22;66763;47.856;17.462;2023-03-31T10:29:21;22.20;50.40
33943;DHT22;66763;47.856;17.462;2023-03-31T10:31:49;22.20;50.50
33943;DHT22;66763;47.856;17.462;2023-03-31T10:34:15;22.20;50.50
33943;DHT22;66763;47.856;17.462;2023-03-31T10:36:44;22.20;50.70
33943;DHT22;66763;47.856;17.462;2023-03-31T10:39:10;22.20;50.90
33943;DHT22;66763;47.856;17.462;2023-03-31T10:41:39;22.30;51.40
33943;DHT22;66763;47.856;17.462;2023-03-31T10:44:06;22.20;51.60
33943;DHT22;66763;47.856;17.462;2023-03-31T10:46:41;22.30;51.70
33943;DHT22;66763;47.856;17.462;2023-03-31T10:49:24;22.20;51.90
33943;DHT22;66763;47.856;17.462;2023-03-31T10:51:54;22.20;52.20
33943;DHT22;66763;47.856;17.462;2023-03-31T10:54:20;22.20;52.10
33943;DHT22;66763;47.856;17.462;2023-03-31T10:56:46;22.20;52.20
33943;DHT22;66763;47.856;17.462;2023-03-31T11:02:00;22.20;52.70
33943;DHT22;66763;47.856;17.462;2023-03-31T11:17:42;22.20;51.60
33943;DHT22;66763;47.856;17.462;2023-03-31T11:20:14;22.20;51.40
33943;DHT22;66763;47.856;17.462;2023-03-31T11:25:24;22.10;51.00
33943;DHT22;66763;47.856;17.462;2023-03-31T11:30:27;22.10;50.40
33943;DHT22;66763;47.856;17.462;2023-03-31T11:35:33;22.10;50.10
33943;DHT22;66763;47.856;17.462;2023-03-31T11:43:26;22.10;50.10
33943;DHT22;66763;47.856;17.462;2023-03-31T11:45:54;22.10;50.00
33943;DHT22;66763;47.856;17.462;2023-03-31T11:48:37;22.00;50.00
33943;DHT22;66763;47.856;17.462;2023-03-31T11:51:04;22.00;49.90
33943;DHT22;66763;47.856;17.462;2023-03-31T11:53:32;22.00;49.70
33943;DHT22;66763;47.856;17.462;2023-03-31T11:56:00;22.00;49.50
33943;DHT22;66763;47.856;17.462;2023-03-31T11:58:29;22.00;49.40
33943;DHT22;66763;47.856;17.462;2023-03-31T12:01:02;22.00;49.30
33943;DHT22;66763;47.856;17.462;2023-03-31T12:06:01;21.90;48.90
33943;DHT22;66763;47.856;17.462;2023-03-31T12:11:03;22.00;49.00
33943;DHT22;66763;47.856;17.462;2023-03-31T12:16:02;22.00;49.20
33943;DHT22;66763;47.856;17.462;2023-03-31T12:18:30;22.00;49.40
33943;DHT22;66763;47.856;17.462;2023-03-31T12:20:58;22.00;49.80
33943;DHT22;66763;47.856;17.462;2023-03-31T12:23:27;22.00;50.50
33943;DHT22;66763;47.856;17.462;2023-03-31T12:25:59;22.10;51.10
33943;DHT22;66763;47.856;17.462;2023-03-31T12:28:26;22.10;52.00
33943;DHT22;66763;47.856;17.462;2023-03-31T12:30:52;22.10;52.00
33943;DHT22;66763;47.856;17.462;2023-03-31T12:41:14;22.10;49.90
33943;DHT22;66763;47.856;17.462;2023-03-31T12:56:03;21.50;47.90
33943;DHT22;66763;47.856;17.462;2023-03-31T13:06:00;21.80;47.20
33943;DHT22;66763;47.856;17.462;2023-03-31T13:11:10;21.80;47.20
33943;DHT22;66763;47.856;17.462;2023-03-31T13:13:39;21.80;47.20
33943;DHT22;66763;47.856;17.462;2023-03-31T13:16:05;21.80;47.30
33943;DHT22;66763;47.856;17.462;2023-03-31T13:18:31;21.80;47.40
33943;DHT22;66763;47.856;17.462;2023-03-31T13:20:58;21.90;47.30
33943;DHT22;66763;47.856;17.462;2023-03-31T13:23:24;21.80;47.20
33943;DHT22;66763;47.856;17.462;2023-03-31T13:25:50;21.80;47.20
33943;DHT22;66763;47.856;17.462;2023-03-31T13:30:45;21.80;47.20
33943;DHT22;66763;47.856;17.462;2023-03-31T13:33:18;21.80;47.20
33943;DHT22;66763;47.856;17.462;2023-03-31T13:35:49;21.80;47.20
33943;DHT22;66763;47.856;17.462;2023-03-31T13:43:40;21.70;47.20
33943;DHT22;66763;47.856;17.462;2023-03-31T14:06:26;21.80;47.70
33943;DHT22;66763;47.856;17.462;2023-03-31T14:09:02;21.80;47.70
33943;DHT22;66763;47.856;17.462;2023-03-31T14:11:30;21.80;47.70
33943;DHT22;66763;47.856;17.462;2023-03-31T14:16:25;21.80;47.60
33943;DHT22;66763;47.856;17.462;2023-03-31T14:18:50;21.80;47.60
33943;DHT22;66763;47.856;17.462;2023-03-31T14:21:23;21.80;47.60
33943;DHT22;66763;47.856;17.462;2023-03-31T14:39:02;21.80;47.30
33943;DHT22;66763;47.856;17.462;2023-03-31T14:41:28;21.80;47.30
33943;DHT22;66763;47.856;17.462;2023-03-31T14:43:54;21.80;47.30
33943;DHT22;66763;47.856;17.462;2023-03-31T14:46:21;21.80;47.30
33943;DHT22;66763;47.856;17.462;2023-03-31T14:48:47;21.80;47.50
33943;DHT22;66763;47.856;17.462;2023-03-31T14:51:14;21.80;47.40
33943;DHT22;66763;47.856;17.462;2023-03-31T14:53:40;21.90;47.40
33943;DHT22;66763;47.856;17.462;2023-03-31T14:56:11;21.80;47.90
33943;DHT22;66763;47.856;17.462;2023-03-31T14:58:39;21.90;47.30
33943;DHT22;66763;47.856;17.462;2023-03-31T15:01:06;21.90;47.10
33943;DHT22;66763;47.856;17.462;2023-03-31T15:03:33;21.80;47.20
33943;DHT22;66763;47.856;17.462;2023-03-31T15:06:00;21.90;46.50
33943;DHT22;66763;47.856;17.462;2023-03-31T15:08:27;21.80;45.50
33943;DHT22;66763;47.856;17.462;2023-03-31T15:10:55;21.70;45.50
33943;DHT22;66763;47.856;17.462;2023-03-31T15:13:31;21.70;45.90
33943;DHT22;66763;47.856;17.462;2023-03-31T15:15:58;21.70;45.40
33943;DHT22;66763;47.856;17.462;2023-03-31T15:18:24;21.70;45.90
33943;DHT22;66763;47.856;17.462;2023-03-31T15:20:50;21.60;45.80
33943;DHT22;66763;47.856;17.462;2023-03-31T15:23:23;21.60;46.10
33943;DHT22;66763;47.856;17.462;2023-03-31T15:26:00;21.60;46.10
33943;DHT22;66763;47.856;17.462;2023-03-31T15:28:27;21.60;45.90
33943;DHT22;66763;47.856;17.462;2023-03-31T15:30:53;21.60;46.00
33943;DHT22;66763;47.856;17.462;2023-03-31T15:33:25;21.60;46.20
33943;DHT22;66763;47.856;17.462;2023-03-31T15:35:52;21.50;46.20
33943;DHT22;66763;47.856;17.462;2023-03-31T15:38:17;21.60;46.40
33943;DHT22;66763;47.856;17.462;2023-03-31T15:40:43;21.60;46.30
33943;DHT22;66763;47.856;17.462;2023-03-31T15:45:37;21.60;46.10
33943;DHT22;66763;47.856;17.462;2023-03-31T15:48:03;21.50;46.10
33943;DHT22;66763;47.856;17.462;2023-03-31T15:50:29;21.50;46.30
33943;DHT22;66763;47.856;17.462;2023-03-31T15:52:56;21.50;46.10
33943;DHT22;66763;47.856;17.462;2023-03-31T15:55:27;21.50;46.30
33943;DHT22;66763;47.856;17.462;2023-03-31T15:57:54;21.50;46.70
33943;DHT22;66763;47.856;17.462;2023-03-31T16:01:05;21.40;46.60
33943;DHT22;66763;47.856;17.462;2023-03-31T16:03:18;21.50;46.70
33943;DHT22;66763;47.856;17.462;2023-03-31T16:08:18;21.50;46.80
33943;DHT22;66763;47.856;17.462;2023-03-31T16:10:45;21.50;46.80
33943;DHT22;66763;47.856;17.462;2023-03-31T16:13:11;21.50;46.80
33943;DHT22;66763;47.856;17.462;2023-03-31T16:15:44;21.50;46.80
33943;DHT22;66763;47.856;17.462;2023-03-31T16:18:12;21.50;46.90
33943;DHT22;66763;47.856;17.462;2023-03-31T16:20:40;21.60;47.00
33943;DHT22;66763;47.856;17.462;2023-03-31T16:23:12;21.50;47.00
33943;DHT22;66763;47.856;17.462;2023-03-31T16:25:39;21.50;46.80
33943;DHT22;66763;47.856;17.462;2023-03-31T16:28:05;21.50;46.60
33943;DHT22;66763;47.856;17.462;2023-03-31T16:30:35;21.40;46.90
33943;DHT22;66763;47.856;17.462;2023-03-31T16:35:34;21.40;46.90
33943;DHT22;66763;47.856;17.462;2023-03-31T16:38:01;21.50;47.00
33943;DHT22;66763;47.856;17.462;2023-03-31T16:40:33;21.50;47.30
33943;DHT22;66763;47.856;17.462;2023-03-31T16:43:32;21.50;47.10
33943;DHT22;66763;47.856;17.462;2023-03-31T16:45:52;21.40;47.40
33943;DHT22;66763;47.856;17.462;2023-03-31T16:48:18;21.50;47.40
33943;DHT22;66763;47.856;17.462;2023-03-31T16:50:45;21.50;47.20
33943;DHT22;66763;47.856;17.462;2023-03-31T16:53:11;21.50;47.40
33943;DHT22;66763;47.856;17.462;2023-03-31T16:55:37;21.50;47.50
33943;DHT22;66763;47.856;17.462;2023-03-31T16:58:03;21.40;46.90
33943;DHT22;66763;47.856;17.462;2023-03-31T17:00:29;21.40;47.30
33943;DHT22;66763;47.856;17.462;2023-03-31T17:02:56;21.50;47.40
33943;DHT22;66763;47.856;17.462;2023-03-31T17:05:22;21.70;47.60
33943;DHT22;66763;47.856;17.462;2023-03-31T17:07:48;21.80;47.50
33943;DHT22;66763;47.856;17.462;2023-03-31T17:10:13;21.90;47.20
33943;DHT22;66763;47.856;17.462;2023-03-31T17:12:39;22.00;47.10
33943;DHT22;66763;47.856;17.462;2023-03-31T17:15:05;22.10;46.90
33943;DHT22;66763;47.856;17.462;2023-03-31T17:17:31;22.20;46.70
33943;DHT22;66763;47.856;17.462;2023-03-31T17:19:56;22.40;46.90
33943;DHT22;66763;47.856;17.462;2023-03-31T17:22:23;22.40;46.70
33943;DHT22;66763;47.856;17.462;2023-03-31T17:24:49;22.50;46.70
33943;DHT22;66763;47.856;17.462;2023-03-31T17:27:21;22.60;46.60
33943;DHT22;66763;47.856;17.462;2023-03-31T17:29:46;22.70;46.50
33943;DHT22;66763;47.856;17.462;2023-03-31T17:32:12;22.70;46.50
33943;DHT22;66763;47.856;17.462;2023-03-31T17:34:39;22.80;46.40
33943;DHT22;66763;47.856;17.462;2023-03-31T17:37:05;22.80;46.30
33943;DHT22;66763;47.856;17.462;2023-03-31T17:39:31;22.90;46.20
33943;DHT22;66763;47.856;17.462;2023-03-31T17:41:56;22.90;46.10
33943;DHT22;66763;47.856;17.462;2023-03-31T17:44:22;23.00;46.10
33943;DHT22;66763;47.856;17.462;2023-03-31T17:46:48;23.00;46.20
33943;DHT22;66763;47.856;17.462;2023-03-31T17:49:14;23.00;46.10
33943;DHT22;66763;47.856;17.462;2023-03-31T17:51:40;23.00;46.10
33943;DHT22;66763;47.856;17.462;2023-03-31T17:54:05;23.10;46.00
33943;DHT22;66763;47.856;17.462;2023-03-31T17:56:33;23.00;45.90
33943;DHT22;66763;47.856;17.462;2023-03-31T17:58:59;23.10;46.20
33943;DHT22;66763;47.856;17.462;2023-03-31T18:01:25;23.10;46.00
33943;DHT22;66763;47.856;17.462;2023-03-31T18:03:53;23.00;46.20
33943;DHT22;66763;47.856;17.462;2023-03-31T18:06:18;23.10;46.20
33943;DHT22;66763;47.856;17.462;2023-03-31T18:08:44;23.00;46.10
33943;DHT22;66763;47.856;17.462;2023-03-31T18:11:10;23.00;46.30
33943;DHT22;66763;47.856;17.462;2023-03-31T18:13:36;23.00;46.30
33943;DHT22;66763;47.856;17.462;2023-03-31T18:16:02;22.90;46.20
33943;DHT22;66763;47.856;17.462;2023-03-31T18:18:28;23.00;46.40
33943;DHT22;66763;47.856;17.462;2023-03-31T18:20:54;23.00;46.40